Portada
METAR-TAF:

METAR-TAF

Aeroports :

Al-Kuwait, Kuwait

latitud: 29-13N, longitud: 047-59E, altitud: 55 m

Observació

L'informe es va fer fa 48 minuts, a les 19:00 UTC
Vent 7 kt del Sud/Sud-Est
Temperatura 29°C
Humitat 31%
Pressió 1009 hPa
Visibilitat 10 km o més
sense núvols per sota de 1500 mi sense presència de cumulonimbus.

METAR: OKBK 221900Z 16007KT CAVOK 29/10 Q1009 NOSIG

Hora: 22:48 (19:48 UTC)

Pronòstic

L'informe es va fer fa 3 hores i 3 minuts, a les 16:45 UTC
Pronòstic vàlid del 22 a les 18 UTC al 23 a les 24 UTC
Vent 12 kt del Sud-Est
Visibilitat: 7000 m
Evolucionant progressivament
l' 22 a les 21 UTC al 22 a les 23 UTC
Vent 3 kt amb direcció variable

TAF: OKBK 221645Z 2218/2324 13012KT 7000 NSC BECMG 2221/2223 VRB03KT

Observacions i pronòstics meteorològics de més de 4000 aeroports (METAR i TAF).

Les estacions disponibles són els punts grocs i vermells al mapa.

Posi el ratolí al punt desitjat per veure el nom de l'estació.

Feu clic per veure les observacions i els pronòstics meteorològics.

Per canviar el mapa: feu clic els botons verds amb una creu de color negre per apropar; al botó verd amb un guió per allunyar la imatge; o en les fletxes verdes per a mapes adjacents.


METAR-TAF: